createdAt,value
2023-02-19T00:00:55.764Z,70.35
2023-02-19T00:01:57.597Z,70.48
2023-02-19T00:02:59.060Z,70.59
2023-02-19T00:04:11.780Z,70.87
2023-02-19T00:05:13.352Z,70.88
2023-02-19T00:06:14.885Z,71.12
2023-02-19T00:07:16.689Z,71.35
2023-02-19T00:08:18.153Z,71.36
2023-02-19T00:09:20.114Z,71.59
2023-02-19T00:10:21.539Z,71.76
2023-02-19T00:11:28.822Z,71.37
2023-02-19T00:12:30.320Z,71.99
2023-02-19T00:13:32.012Z,72.11
2023-02-19T00:14:33.580Z,72.04
2023-02-19T00:15:35.574Z,72.30
2023-02-19T00:16:39.235Z,72.02
2023-02-19T00:17:40.696Z,72.25
2023-02-19T00:18:43.250Z,72.01
2023-02-19T00:19:44.718Z,72.05
2023-02-19T00:20:46.231Z,72.13
2023-02-19T00:21:51.304Z,72.13
2023-02-19T00:22:52.745Z,72.36
2023-02-19T00:23:56.770Z,72.40
2023-02-19T00:24:58.260Z,72.58
2023-02-19T00:26:18.071Z,72.67
2023-02-19T00:27:20.780Z,72.73
2023-02-19T00:28:22.734Z,72.69
2023-02-19T00:29:25.108Z,72.85
2023-02-19T00:30:26.637Z,72.82
2023-02-19T00:31:33.660Z,73.23
2023-02-19T00:32:35.449Z,73.19
2023-02-19T00:33:36.972Z,72.99
2023-02-19T00:34:38.407Z,72.68
2023-02-19T00:35:40.004Z,72.79
2023-02-19T00:36:42.725Z,72.82
2023-02-19T00:37:44.367Z,72.18
2023-02-19T00:38:46.325Z,72.77
2023-02-19T00:39:48.427Z,72.90
2023-02-19T00:40:49.877Z,72.67
2023-02-19T00:41:51.333Z,72.64
2023-02-19T00:42:52.920Z,72.90
2023-02-19T00:44:03.295Z,73.25
2023-02-19T00:45:05.375Z,73.49
2023-02-19T00:46:06.837Z,73.64
2023-02-19T00:47:08.307Z,73.80
2023-02-19T00:48:09.722Z,73.88
2023-02-19T00:49:18.317Z,73.58
2023-02-19T00:50:19.758Z,73.81
2023-02-19T00:51:25.700Z,74.16
2023-02-19T00:52:27.116Z,73.94
2023-02-19T00:53:28.630Z,73.79
2023-02-19T00:54:31.624Z,73.88
2023-02-19T00:55:32.982Z,73.75
2023-02-19T00:56:34.832Z,73.99
2023-02-19T00:57:36.274Z,74.53
2023-02-19T00:58:38.380Z,74.46
2023-02-19T00:59:39.896Z,74.77
2023-02-19T01:00:41.328Z,75.39
2023-02-19T01:01:45.092Z,75.33
2023-02-19T01:02:46.573Z,76.16
2023-02-19T01:03:48.523Z,76.30
2023-02-19T01:04:50.130Z,77.06
2023-02-19T01:05:52.428Z,76.96
2023-02-19T01:06:55.913Z,77.30
2023-02-19T01:07:57.356Z,77.12
2023-02-19T01:08:59.180Z,77.50
2023-02-19T01:10:00.633Z,77.44
2023-02-19T01:11:04.847Z,77.71
2023-02-19T01:12:06.686Z,77.75
2023-02-19T01:13:08.253Z,77.80
2023-02-19T01:14:09.973Z,77.33
2023-02-19T01:15:11.435Z,77.88
2023-02-19T01:16:18.844Z,78.25
2023-02-19T01:17:20.950Z,78.08
2023-02-19T01:18:22.413Z,77.97
2023-02-19T01:19:23.915Z,77.87
2023-02-19T01:20:26.504Z,78.25
2023-02-19T01:21:29.470Z,78.41
2023-02-19T01:22:30.797Z,78.26
2023-02-19T01:23:32.185Z,78.15
2023-02-19T01:24:33.512Z,77.99
2023-02-19T01:25:34.834Z,78.15
2023-02-19T01:26:36.183Z,78.16
2023-02-19T01:27:37.510Z,78.07
2023-02-19T01:28:39.133Z,78.46
2023-02-19T01:29:40.676Z,78.47
2023-02-19T01:30:42.180Z,78.55
2023-02-19T01:31:43.767Z,79.17
2023-02-19T01:32:45.363Z,79.48
2023-02-19T01:33:52.411Z,79.58
2023-02-19T01:34:53.874Z,78.81
2023-02-19T01:35:55.471Z,79.42
2023-02-19T01:36:56.908Z,79.72
2023-02-19T01:37:58.383Z,79.58
2023-02-19T01:39:03.748Z,79.40
2023-02-19T01:40:05.544Z,79.20
2023-02-19T01:41:10.101Z,79.13
2023-02-19T01:42:16.494Z,79.54
2023-02-19T01:43:17.954Z,80.09
2023-02-19T01:44:22.519Z,80.38
2023-02-19T01:45:32.486Z,80.14
2023-02-19T01:46:36.004Z,80.08
2023-02-19T01:47:37.483Z,79.71
2023-02-19T01:48:39.706Z,79.89
2023-02-19T01:49:59.269Z,79.49
2023-02-19T01:51:12.749Z,79.30
2023-02-19T01:52:34.407Z,79.25
2023-02-19T01:53:43.854Z,79.40
2023-02-19T01:54:46.718Z,78.98
2023-02-19T01:55:52.490Z,79.67
2023-02-19T01:56:56.724Z,79.53
2023-02-19T01:57:58.554Z,79.87
2023-02-19T01:59:01.038Z,80.24
2023-02-19T02:00:08.225Z,80.42
2023-02-19T02:01:10.340Z,80.06
2023-02-19T02:02:13.036Z,79.84
2023-02-19T02:03:16.200Z,79.92
2023-02-19T02:04:18.835Z,80.07
2023-02-19T02:05:41.894Z,79.69
2023-02-19T02:06:49.544Z,79.43
2023-02-19T02:08:09.649Z,79.19
2023-02-19T02:09:29.955Z,79.39
2023-02-19T02:10:31.540Z,79.91
2023-02-19T02:11:33.391Z,79.56
2023-02-19T02:12:35.028Z,79.44
2023-02-19T02:13:40.052Z,79.49
2023-02-19T02:14:45.718Z,79.50
2023-02-19T02:16:10.161Z,79.22
2023-02-19T02:17:27.241Z,79.27
2023-02-19T02:18:39.466Z,79.60
2023-02-19T02:19:43.843Z,79.32
2023-02-19T02:21:00.495Z,79.56
2023-02-19T02:22:05.207Z,79.55
2023-02-19T02:23:28.380Z,78.97
2023-02-19T02:24:35.678Z,79.30
2023-02-19T02:26:12.768Z,79.29
2023-02-19T02:27:49.076Z,79.13
2023-02-19T02:29:47.849Z,79.64
2023-02-19T02:30:58.244Z,80.16
2023-02-19T02:32:12.017Z,80.83
2023-02-19T02:33:19.828Z,80.50
2023-02-19T02:34:30.329Z,80.53
2023-02-19T02:35:47.949Z,80.70
2023-02-19T02:36:55.576Z,80.54
2023-02-19T02:38:02.825Z,81.46
2023-02-19T02:39:10.693Z,81.24
2023-02-19T02:40:12.268Z,81.07
2023-02-19T02:41:15.443Z,81.01
2023-02-19T02:42:29.325Z,80.77
2023-02-19T02:43:30.751Z,80.74
2023-02-19T02:44:36.332Z,81.14
2023-02-19T02:45:39.738Z,81.35
2023-02-19T02:46:45.275Z,81.10
2023-02-19T02:47:52.891Z,81.16
2023-02-19T02:48:58.230Z,80.91
2023-02-19T02:50:06.201Z,80.92
2023-02-19T02:51:15.701Z,81.00
2023-02-19T02:52:40.232Z,80.96
2023-02-19T02:54:02.170Z,80.59
2023-02-19T02:55:09.764Z,80.44
2023-02-19T02:56:14.277Z,80.28
2023-02-19T02:57:17.659Z,79.86
2023-02-19T02:58:22.434Z,80.01
2023-02-19T02:59:27.403Z,79.47
2023-02-19T03:00:49.625Z,79.56
2023-02-19T03:02:12.302Z,79.82
2023-02-19T03:03:17.500Z,79.28
2023-02-19T03:04:30.027Z,79.27
2023-02-19T03:05:50.634Z,79.19
2023-02-19T03:06:53.502Z,79.27
2023-02-19T03:08:10.958Z,78.91
2023-02-19T03:09:31.042Z,78.42
2023-02-19T03:10:40.908Z,78.42
2023-02-19T03:12:05.232Z,78.42
2023-02-19T03:13:31.452Z,78.62
2023-02-19T03:15:09.321Z,78.26
2023-02-19T03:16:36.556Z,78.46
2023-02-19T03:18:11.243Z,78.17
2023-02-19T03:19:21.496Z,78.00
2023-02-19T03:20:24.686Z,78.03
2023-02-19T03:21:28.393Z,77.74
2023-02-19T03:22:33.472Z,77.71
2023-02-19T03:23:55.858Z,78.18
2023-02-19T03:25:22.680Z,77.92
2023-02-19T03:26:26.185Z,78.12
2023-02-19T03:27:34.472Z,78.75
2023-02-19T03:28:57.615Z,78.30
2023-02-19T03:30:03.053Z,78.80
2023-02-19T03:31:04.682Z,78.18
2023-02-19T03:32:21.325Z,78.40
2023-02-19T03:33:27.067Z,78.87
2023-02-19T03:34:37.904Z,78.67
2023-02-19T03:35:46.493Z,78.50
2023-02-19T03:36:58.383Z,78.20
2023-02-19T03:38:04.544Z,78.62
2023-02-19T03:39:08.529Z,78.01
2023-02-19T03:40:11.399Z,77.96
2023-02-19T03:41:40.043Z,78.24
2023-02-19T03:43:09.783Z,78.32
2023-02-19T03:44:22.317Z,78.10
2023-02-19T03:45:27.538Z,77.83
2023-02-19T03:46:52.974Z,77.89
2023-02-19T03:48:03.264Z,77.86
2023-02-19T03:49:34.023Z,77.74
2023-02-19T03:50:48.206Z,78.48
2023-02-19T03:52:12.726Z,78.29
2023-02-19T03:53:23.228Z,78.21
2023-02-19T03:54:44.876Z,77.92
2023-02-19T03:56:03.100Z,77.97
2023-02-19T03:57:14.244Z,78.50
2023-02-19T03:58:31.624Z,78.26
2023-02-19T03:59:48.951Z,78.15
2023-02-19T04:01:07.066Z,78.14
2023-02-19T04:02:13.812Z,77.96
2023-02-19T04:03:26.989Z,77.61
2023-02-19T04:04:35.188Z,78.03
2023-02-19T04:05:43.110Z,78.05
2023-02-19T04:06:52.584Z,77.80
2023-02-19T04:08:09.273Z,77.81
2023-02-19T04:09:14.852Z,77.54
2023-02-19T04:10:18.178Z,77.49
2023-02-19T04:11:22.393Z,77.60
2023-02-19T04:12:24.324Z,77.46
2023-02-19T04:13:33.032Z,77.42
2023-02-19T04:14:49.850Z,77.70
2023-02-19T04:15:54.960Z,77.53
2023-02-19T04:17:04.934Z,77.50
2023-02-19T04:18:14.377Z,76.96
2023-02-19T04:19:21.285Z,77.23
2023-02-19T04:20:26.134Z,77.01
2023-02-19T04:21:30.340Z,76.55
2023-02-19T04:22:31.999Z,76.71
2023-02-19T04:23:39.332Z,76.78
2023-02-19T04:24:47.826Z,76.60
2023-02-19T04:25:55.207Z,76.55
2023-02-19T04:26:57.261Z,77.31
2023-02-19T04:27:59.005Z,76.88
2023-02-19T04:29:00.872Z,76.54
2023-02-19T04:30:02.369Z,76.67
2023-02-19T04:31:04.052Z,76.49
2023-02-19T04:32:05.706Z,76.66
2023-02-19T04:33:07.145Z,76.66
2023-02-19T04:34:08.713Z,76.07
2023-02-19T04:35:10.499Z,76.66
2023-02-19T04:36:12.220Z,76.29
2023-02-19T04:37:13.723Z,76.66
2023-02-19T04:38:15.306Z,76.15
2023-02-19T04:39:16.744Z,75.46
2023-02-19T04:40:18.339Z,75.88
2023-02-19T04:41:19.742Z,76.10
2023-02-19T04:42:21.164Z,75.52
2023-02-19T04:43:22.672Z,75.58
2023-02-19T04:44:24.200Z,76.57
2023-02-19T04:45:25.861Z,77.44
2023-02-19T04:46:27.483Z,77.20
2023-02-19T04:47:28.946Z,77.18
2023-02-19T04:48:30.441Z,77.37
2023-02-19T04:49:32.009Z,76.61
2023-02-19T04:50:33.519Z,76.50
2023-02-19T04:51:35.008Z,75.86
2023-02-19T04:52:36.547Z,75.15
2023-02-19T04:53:38.642Z,75.15
2023-02-19T04:54:40.118Z,75.31
2023-02-19T04:55:41.604Z,74.70
2023-02-19T04:56:43.062Z,75.10
2023-02-19T04:57:44.501Z,75.19
2023-02-19T04:58:45.910Z,75.03
2023-02-19T04:59:47.682Z,75.12
2023-02-19T05:00:53.143Z,74.80
2023-02-19T05:01:54.767Z,74.79
2023-02-19T05:02:56.336Z,74.01
2023-02-19T05:03:57.929Z,74.42
2023-02-19T05:04:59.478Z,74.29
2023-02-19T05:06:10.006Z,74.15
2023-02-19T05:07:11.589Z,73.95
2023-02-19T05:08:13.172Z,74.26
2023-02-19T05:09:14.668Z,74.11
2023-02-19T05:10:16.185Z,74.82
2023-02-19T05:11:17.674Z,74.85
2023-02-19T05:12:19.128Z,75.28
2023-02-19T05:13:20.613Z,74.63
2023-02-19T05:14:22.220Z,75.65
2023-02-19T05:15:23.661Z,75.48
2023-02-19T05:16:25.117Z,75.29
2023-02-19T05:17:26.686Z,75.39
2023-02-19T05:18:28.580Z,75.14
2023-02-19T05:19:29.996Z,75.06
2023-02-19T05:20:31.439Z,74.71
2023-02-19T05:21:32.939Z,74.55
2023-02-19T05:22:34.568Z,74.63
2023-02-19T05:23:36.182Z,74.37
2023-02-19T05:24:37.677Z,74.86
2023-02-19T05:25:39.108Z,74.51
2023-02-19T05:26:40.538Z,74.51
2023-02-19T05:27:41.945Z,74.37
2023-02-19T05:28:44.885Z,74.29
2023-02-19T05:29:46.233Z,74.36
2023-02-19T05:30:52.785Z,74.40
2023-02-19T05:31:54.396Z,74.39
2023-02-19T05:32:56.088Z,74.46
2023-02-19T05:33:57.680Z,74.31
2023-02-19T05:34:59.138Z,74.30
2023-02-19T05:36:06.246Z,74.23
2023-02-19T05:37:07.713Z,74.56
2023-02-19T05:38:09.590Z,74.37
2023-02-19T05:39:12.302Z,74.34
2023-02-19T05:40:13.778Z,74.54
2023-02-19T05:41:24.504Z,74.31
2023-02-19T05:42:25.906Z,74.40
2023-02-19T05:43:27.313Z,74.46
2023-02-19T05:44:28.894Z,74.31
2023-02-19T05:45:30.436Z,73.94
2023-02-19T05:46:32.008Z,74.01
2023-02-19T05:47:33.458Z,74.24
2023-02-19T05:48:35.165Z,74.25
2023-02-19T05:49:36.749Z,73.97
2023-02-19T05:50:39.771Z,74.07
2023-02-19T05:51:41.469Z,74.13
2023-02-19T05:52:44.210Z,74.29
2023-02-19T05:53:46.780Z,74.25
2023-02-19T05:54:48.497Z,73.80
2023-02-19T05:55:50.176Z,74.17
2023-02-19T05:56:51.811Z,73.94
2023-02-19T05:57:53.209Z,74.13
2023-02-19T05:58:54.968Z,74.06
2023-02-19T05:59:56.600Z,74.47
2023-02-19T06:00:58.057Z,74.13
2023-02-19T06:01:59.625Z,73.97
2023-02-19T06:03:01.439Z,74.82
2023-02-19T06:04:03.047Z,74.76
2023-02-19T06:05:05.467Z,74.41
2023-02-19T06:06:07.446Z,74.32
2023-02-19T06:07:09.363Z,74.55
2023-02-19T06:08:15.104Z,74.61
2023-02-19T06:09:17.171Z,74.69
2023-02-19T06:10:19.190Z,74.50
2023-02-19T06:11:20.998Z,74.51
2023-02-19T06:12:22.672Z,74.56
2023-02-19T06:13:24.523Z,74.26
2023-02-19T06:14:25.949Z,74.48
2023-02-19T06:15:27.435Z,74.84
2023-02-19T06:16:29.325Z,74.69
2023-02-19T06:17:31.034Z,74.62
2023-02-19T06:18:32.677Z,74.70
2023-02-19T06:19:34.096Z,74.63
2023-02-19T06:20:35.635Z,74.72
2023-02-19T06:21:37.259Z,74.71
2023-02-19T06:22:38.720Z,74.54
2023-02-19T06:23:41.025Z,74.45
2023-02-19T06:24:42.579Z,74.82
2023-02-19T06:25:43.997Z,74.40
2023-02-19T06:26:46.535Z,74.88
2023-02-19T06:27:47.980Z,74.86
2023-02-19T06:28:50.963Z,74.88
2023-02-19T06:29:52.391Z,74.73
2023-02-19T06:30:53.830Z,74.59
2023-02-19T06:31:55.314Z,74.86
2023-02-19T06:32:56.962Z,74.79
2023-02-19T06:33:58.595Z,74.46
2023-02-19T06:35:00.110Z,74.99
2023-02-19T06:36:04.101Z,74.76
2023-02-19T06:37:05.564Z,74.32
2023-02-19T06:38:07.441Z,74.23
2023-02-19T06:39:09.881Z,74.68
2023-02-19T06:40:11.625Z,74.57
2023-02-19T06:41:13.975Z,74.72
2023-02-19T06:42:15.586Z,74.59
2023-02-19T06:43:17.158Z,74.35
2023-02-19T06:44:18.599Z,74.62
2023-02-19T06:45:20.099Z,74.01
2023-02-19T06:46:21.605Z,74.07
2023-02-19T06:47:25.373Z,74.23
2023-02-19T06:48:28.602Z,74.23
2023-02-19T06:49:30.082Z,73.99
2023-02-19T06:50:31.537Z,74.00
2023-02-19T06:51:33.585Z,73.77
2023-02-19T06:52:35.435Z,73.93
2023-02-19T06:53:36.899Z,74.35
2023-02-19T06:54:38.313Z,74.23
2023-02-19T06:55:40.449Z,74.62
2023-02-19T06:56:43.949Z,74.70
2023-02-19T06:57:46.291Z,74.74
2023-02-19T06:58:47.952Z,74.83
2023-02-19T06:59:49.393Z,74.47
2023-02-19T07:00:51.133Z,74.43
2023-02-19T07:01:52.624Z,74.89
2023-02-19T07:02:56.590Z,74.66
2023-02-19T07:03:58.991Z,74.98
2023-02-19T07:05:00.423Z,74.80
2023-02-19T07:06:01.985Z,74.79
2023-02-19T07:07:03.496Z,74.73
2023-02-19T07:08:05.485Z,74.77
2023-02-19T07:09:08.440Z,74.77
2023-02-19T07:10:09.930Z,75.31
2023-02-19T07:11:11.693Z,75.04
2023-02-19T07:12:13.331Z,74.30
2023-02-19T07:13:14.890Z,74.69
2023-02-19T07:14:17.208Z,74.65
2023-02-19T07:15:18.628Z,74.66
2023-02-19T07:16:20.179Z,74.59
2023-02-19T07:17:21.611Z,74.14
2023-02-19T07:18:23.083Z,73.96
2023-02-19T07:19:24.495Z,73.75
2023-02-19T07:20:26.105Z,74.27
2023-02-19T07:21:28.415Z,73.91
2023-02-19T07:22:30.161Z,74.24
2023-02-19T07:23:32.163Z,73.77
2023-02-19T07:24:33.622Z,73.97
2023-02-19T07:25:35.078Z,74.23
2023-02-19T07:26:36.489Z,73.83
2023-02-19T07:27:37.998Z,73.62
2023-02-19T07:28:43.600Z,73.90
2023-02-19T07:29:45.115Z,73.62
2023-02-19T07:30:46.587Z,73.96
2023-02-19T07:31:48.276Z,74.00
2023-02-19T07:32:49.781Z,73.68
2023-02-19T07:33:51.954Z,73.92
2023-02-19T07:34:53.422Z,73.71
2023-02-19T07:35:54.907Z,73.29
2023-02-19T07:36:56.348Z,73.56
2023-02-19T07:37:57.829Z,73.60
2023-02-19T07:39:00.283Z,73.49
2023-02-19T07:40:02.120Z,73.75
2023-02-19T07:41:05.208Z,73.53
2023-02-19T07:42:06.799Z,73.89
2023-02-19T07:43:08.338Z,73.49
2023-02-19T07:44:09.880Z,72.94
2023-02-19T07:45:11.317Z,73.13
2023-02-19T07:46:13.950Z,73.02
2023-02-19T07:47:15.363Z,73.24
2023-02-19T07:48:18.051Z,73.13
2023-02-19T07:49:19.543Z,72.93
2023-02-19T07:50:21.030Z,72.97
2023-02-19T07:51:22.702Z,72.84
2023-02-19T07:52:24.248Z,72.76
2023-02-19T07:53:26.776Z,72.75
2023-02-19T07:54:30.812Z,73.10
2023-02-19T07:55:33.270Z,72.99
2023-02-19T07:56:34.782Z,72.94
2023-02-19T07:57:36.408Z,72.88
2023-02-19T07:58:38.186Z,72.77
2023-02-19T07:59:39.613Z,72.90
2023-02-19T08:00:41.053Z,72.64
2023-02-19T08:02:01.140Z,72.78
2023-02-19T08:03:03.187Z,72.56
2023-02-19T08:04:04.838Z,72.92
2023-02-19T08:05:07.059Z,72.78
2023-02-19T08:06:11.131Z,72.17
2023-02-19T08:07:12.715Z,72.88
2023-02-19T08:08:14.978Z,72.73
2023-02-19T08:09:16.365Z,72.59
2023-02-19T08:10:36.591Z,73.14
2023-02-19T08:11:56.809Z,73.29
2023-02-19T08:13:18.610Z,72.78
2023-02-19T08:14:20.211Z,72.79
2023-02-19T08:15:22.492Z,72.57
2023-02-19T08:16:40.685Z,72.39
2023-02-19T08:17:44.222Z,72.33
2023-02-19T08:18:47.863Z,72.67
2023-02-19T08:19:49.285Z,72.86
2023-02-19T08:20:51.359Z,72.75
2023-02-19T08:21:53.611Z,72.39
2023-02-19T08:22:55.165Z,72.82
2023-02-19T08:23:56.608Z,72.68
2023-02-19T08:24:58.060Z,72.40
2023-02-19T08:26:01.318Z,71.94
2023-02-19T08:27:02.747Z,71.82
2023-02-19T08:28:05.339Z,72.07
2023-02-19T08:29:06.813Z,71.76
2023-02-19T08:30:08.923Z,71.80
2023-02-19T08:31:11.980Z,72.08
2023-02-19T08:32:13.875Z,72.22
2023-02-19T08:33:22.708Z,72.08
2023-02-19T08:34:24.127Z,72.03
2023-02-19T08:35:25.910Z,72.58
2023-02-19T08:36:27.559Z,72.54
2023-02-19T08:37:29.199Z,72.38
2023-02-19T08:38:32.322Z,72.65
2023-02-19T08:39:33.884Z,72.04
2023-02-19T08:40:37.323Z,72.14
2023-02-19T08:41:38.796Z,72.12
2023-02-19T08:42:40.512Z,72.26
2023-02-19T08:43:42.826Z,71.81
2023-02-19T08:44:44.438Z,71.82
2023-02-19T08:45:47.564Z,71.85
2023-02-19T08:46:49.500Z,71.82
2023-02-19T08:47:50.958Z,71.52
2023-02-19T08:48:52.520Z,71.30
2023-02-19T08:49:54.002Z,71.64
2023-02-19T08:50:57.437Z,71.82
2023-02-19T08:51:59.380Z,71.45
2023-02-19T08:53:01.715Z,71.55
2023-02-19T08:54:04.276Z,71.53
2023-02-19T08:55:06.487Z,71.73
2023-02-19T08:56:15.951Z,71.57
2023-02-19T08:57:17.352Z,71.37
2023-02-19T08:58:18.765Z,71.25
2023-02-19T08:59:20.719Z,71.09
2023-02-19T09:00:22.817Z,71.05
2023-02-19T09:01:24.729Z,71.05
2023-02-19T09:02:26.860Z,71.03
2023-02-19T09:03:28.288Z,71.15
2023-02-19T09:04:29.947Z,71.10
2023-02-19T09:05:31.792Z,70.91
2023-02-19T09:06:33.274Z,70.75
2023-02-19T09:07:34.677Z,70.08
2023-02-19T09:08:36.153Z,70.21
2023-02-19T09:09:38.207Z,70.45
2023-02-19T09:10:39.785Z,70.16
2023-02-19T09:11:41.613Z,70.14
2023-02-19T09:12:43.148Z,70.44
2023-02-19T09:13:44.896Z,70.36
2023-02-19T09:14:46.712Z,70.76
2023-02-19T09:15:48.265Z,70.74
2023-02-19T09:16:50.028Z,70.71
2023-02-19T09:17:53.035Z,70.77
2023-02-19T09:18:54.417Z,70.67
2023-02-19T09:19:55.740Z,70.73
2023-02-19T09:21:01.030Z,70.88
2023-02-19T09:22:04.243Z,71.00
2023-02-19T09:23:05.643Z,70.65
2023-02-19T09:24:09.542Z,71.08
2023-02-19T09:25:11.019Z,71.08
2023-02-19T09:26:14.022Z,71.38
2023-02-19T09:27:16.998Z,71.21
2023-02-19T09:28:18.500Z,71.38
2023-02-19T09:29:21.048Z,71.12
2023-02-19T09:30:22.930Z,71.36
2023-02-19T09:31:24.857Z,71.46
2023-02-19T09:32:26.410Z,71.38
2023-02-19T09:33:27.857Z,71.38
2023-02-19T09:34:29.334Z,71.02
2023-02-19T09:35:30.768Z,71.13
2023-02-19T09:36:33.821Z,70.94
2023-02-19T09:37:35.319Z,71.06
2023-02-19T09:38:36.901Z,71.18
2023-02-19T09:39:38.532Z,71.13
2023-02-19T09:40:40.189Z,71.55
2023-02-19T09:41:49.339Z,71.61
2023-02-19T09:42:51.224Z,71.33
2023-02-19T09:43:56.089Z,71.28
2023-02-19T09:45:00.485Z,71.06
2023-02-19T09:46:10.020Z,71.41
2023-02-19T09:47:22.863Z,71.39
2023-02-19T09:48:24.389Z,71.31
2023-02-19T09:49:34.660Z,71.64
2023-02-19T09:50:48.475Z,71.85
2023-02-19T09:51:59.685Z,72.02
2023-02-19T09:53:05.323Z,72.13
2023-02-19T09:54:13.270Z,71.96
2023-02-19T09:55:37.961Z,71.82
2023-02-19T09:56:40.010Z,71.79
2023-02-19T09:57:43.524Z,71.67
2023-02-19T09:58:52.062Z,71.71
2023-02-19T10:00:01.776Z,71.79
2023-02-19T10:01:05.944Z,71.70
2023-02-19T10:02:17.116Z,71.31
2023-02-19T10:03:31.704Z,71.30
2023-02-19T10:04:33.173Z,71.72
2023-02-19T10:05:35.338Z,71.94
2023-02-19T10:06:38.362Z,71.81
2023-02-19T10:07:47.803Z,72.12
2023-02-19T10:08:52.398Z,72.28
2023-02-19T10:10:02.045Z,72.26
2023-02-19T10:11:06.151Z,72.27
2023-02-19T10:12:23.332Z,72.30
2023-02-19T10:13:35.906Z,72.30
2023-02-19T10:14:44.848Z,72.60
2023-02-19T10:15:54.373Z,72.57
2023-02-19T10:16:59.321Z,72.62
2023-02-19T10:18:00.801Z,72.36
2023-02-19T10:19:02.375Z,72.97
2023-02-19T10:20:04.613Z,72.90
2023-02-19T10:21:06.418Z,73.03
2023-02-19T10:22:12.163Z,73.02
2023-02-19T10:23:15.691Z,72.88
2023-02-19T10:24:24.380Z,72.91
2023-02-19T10:25:25.830Z,72.83
2023-02-19T10:26:28.124Z,72.79
2023-02-19T10:27:31.139Z,72.94
2023-02-19T10:28:36.398Z,72.77
2023-02-19T10:29:37.915Z,73.19
2023-02-19T10:30:39.510Z,72.68
2023-02-19T10:31:41.434Z,72.80
2023-02-19T10:33:18.281Z,72.57
2023-02-19T10:34:22.538Z,72.26
2023-02-19T10:35:24.037Z,71.75
2023-02-19T10:36:30.469Z,71.51
2023-02-19T10:37:33.614Z,71.48
2023-02-19T10:38:56.227Z,71.50
2023-02-19T10:39:58.723Z,71.53
2023-02-19T10:41:13.416Z,71.37
2023-02-19T10:42:23.074Z,71.20
2023-02-19T10:43:33.134Z,70.76
2023-02-19T10:44:42.234Z,71.12
2023-02-19T10:45:47.925Z,71.15
2023-02-19T10:46:51.951Z,71.07
2023-02-19T10:47:53.566Z,71.43
2023-02-19T10:49:07.531Z,71.58
2023-02-19T10:50:23.846Z,72.06
2023-02-19T10:51:35.001Z,72.75
2023-02-19T10:52:36.633Z,73.12
2023-02-19T10:53:48.836Z,73.78
2023-02-19T10:54:57.227Z,74.05
2023-02-19T10:56:13.441Z,74.10
2023-02-19T10:57:14.970Z,74.54
2023-02-19T10:58:26.949Z,74.49
2023-02-19T10:59:29.031Z,74.56
2023-02-19T11:00:31.379Z,74.16
2023-02-19T11:01:33.224Z,74.32
2023-02-19T11:02:34.761Z,74.80
2023-02-19T11:03:36.302Z,74.57
2023-02-19T11:04:39.550Z,74.25
2023-02-19T11:05:52.567Z,74.26
2023-02-19T11:06:54.345Z,74.51
2023-02-19T11:07:57.169Z,74.56
2023-02-19T11:09:01.664Z,74.19
2023-02-19T11:10:05.654Z,74.47
2023-02-19T11:11:07.148Z,74.53
2023-02-19T11:12:10.459Z,73.92
2023-02-19T11:13:20.728Z,74.18
2023-02-19T11:14:24.597Z,74.21
2023-02-19T11:15:30.328Z,74.05
2023-02-19T11:16:44.710Z,73.92
2023-02-19T11:17:55.096Z,73.95
2023-02-19T11:18:57.304Z,73.69
2023-02-19T11:20:07.170Z,74.01
2023-02-19T11:21:25.400Z,73.56
2023-02-19T11:22:31.521Z,73.81
2023-02-19T11:23:35.864Z,73.58
2023-02-19T11:24:40.522Z,73.31
2023-02-19T11:26:04.036Z,73.43
2023-02-19T11:27:16.937Z,73.51
2023-02-19T11:28:36.400Z,73.68
2023-02-19T11:29:38.158Z,73.93
2023-02-19T11:30:42.557Z,73.79
2023-02-19T11:31:44.230Z,73.62
2023-02-19T11:32:45.758Z,73.81
2023-02-19T11:34:02.072Z,73.27
2023-02-19T11:35:25.207Z,73.67
2023-02-19T11:36:30.800Z,73.38
2023-02-19T11:37:33.252Z,73.04
2023-02-19T11:38:35.438Z,73.35
2023-02-19T11:39:37.444Z,73.19
2023-02-19T11:40:45.555Z,73.51
2023-02-19T11:41:56.376Z,73.39
2023-02-19T11:43:12.847Z,73.03
2023-02-19T11:44:31.547Z,72.59
2023-02-19T11:45:42.793Z,73.43
2023-02-19T11:47:01.566Z,73.35
2023-02-19T11:48:31.157Z,73.53
2023-02-19T11:49:52.822Z,73.96
2023-02-19T11:51:27.834Z,73.76
2023-02-19T11:53:22.198Z,73.78
2023-02-19T11:54:42.624Z,73.57
2023-02-19T11:55:59.110Z,73.67
2023-02-19T11:57:31.113Z,73.93
2023-02-19T11:59:00.911Z,73.21
2023-02-19T12:00:15.677Z,72.81
2023-02-19T12:01:19.953Z,72.73
2023-02-19T12:02:47.672Z,72.74
2023-02-19T12:04:14.187Z,72.62
2023-02-19T12:05:24.362Z,72.27
2023-02-19T12:07:03.187Z,72.14
2023-02-19T12:08:29.285Z,72.16
2023-02-19T12:09:52.860Z,72.08
2023-02-19T12:11:09.031Z,72.15
2023-02-19T12:12:28.736Z,72.31
2023-02-19T12:14:00.758Z,72.35
2023-02-19T12:15:39.279Z,72.71
2023-02-19T12:16:55.929Z,72.55
2023-02-19T12:18:22.917Z,72.11
2023-02-19T12:19:42.299Z,72.74
2023-02-19T12:21:13.310Z,73.29
2023-02-19T12:22:28.479Z,73.26
2023-02-19T12:23:39.003Z,73.53
2023-02-19T12:25:00.778Z,73.52
2023-02-19T12:26:02.144Z,73.21
2023-02-19T12:27:41.443Z,73.30
2023-02-19T12:29:06.291Z,73.42
2023-02-19T12:30:26.916Z,73.62
2023-02-19T12:31:45.173Z,73.75
2023-02-19T12:32:55.468Z,73.67
2023-02-19T12:34:04.284Z,74.24
2023-02-19T12:35:26.962Z,73.66
2023-02-19T12:36:50.789Z,73.68
2023-02-19T12:38:24.594Z,74.00
2023-02-19T12:39:25.927Z,73.92
2023-02-19T12:40:38.676Z,74.26
2023-02-19T12:42:00.256Z,74.40
2023-02-19T12:43:18.707Z,74.05
2023-02-19T12:44:28.755Z,74.03
2023-02-19T12:45:32.846Z,74.13
2023-02-19T12:46:46.769Z,74.16
2023-02-19T12:48:21.382Z,73.77
2023-02-19T12:49:32.538Z,73.35
2023-02-19T12:50:35.785Z,73.71
2023-02-19T12:51:45.328Z,74.03
2023-02-19T12:52:51.926Z,73.82
2023-02-19T12:54:25.254Z,73.69
2023-02-19T12:55:35.318Z,73.46
2023-02-19T12:56:48.873Z,73.63
2023-02-19T12:57:51.748Z,73.46
2023-02-19T12:59:02.431Z,73.32
2023-02-19T13:00:19.033Z,73.25
2023-02-19T13:01:28.288Z,73.65
2023-02-19T13:02:38.720Z,73.59
2023-02-19T13:03:53.833Z,73.17
2023-02-19T13:05:22.339Z,73.33
2023-02-19T13:06:27.677Z,73.30
2023-02-19T13:07:56.237Z,73.31
2023-02-19T13:09:15.587Z,73.58
2023-02-19T13:10:33.646Z,73.70
2023-02-19T13:11:45.328Z,73.60
2023-02-19T13:12:49.713Z,72.80
2023-02-19T13:14:00.101Z,73.18
2023-02-19T13:15:09.598Z,72.67
2023-02-19T13:16:18.424Z,72.29
2023-02-19T13:17:28.719Z,72.50
2023-02-19T13:18:37.507Z,72.73
2023-02-19T13:19:39.130Z,71.62
2023-02-19T13:20:46.589Z,71.49
2023-02-19T13:22:15.182Z,71.54
2023-02-19T13:23:37.847Z,70.84
2023-02-19T13:24:42.197Z,71.14
2023-02-19T13:26:21.457Z,70.83
2023-02-19T13:28:00.783Z,70.90
2023-02-19T13:29:11.217Z,70.02
2023-02-19T13:30:48.994Z,69.61
2023-02-19T13:32:23.852Z,68.25
2023-02-19T13:33:50.181Z,67.96
2023-02-19T13:35:19.276Z,68.48
2023-02-19T13:36:26.524Z,68.06
2023-02-19T13:37:33.508Z,67.80
2023-02-19T13:38:41.410Z,68.15
2023-02-19T13:39:57.038Z,67.83
2023-02-19T13:41:00.222Z,67.84
2023-02-19T13:42:02.150Z,67.38
2023-02-19T13:43:07.337Z,67.19
2023-02-19T13:44:19.570Z,66.92
2023-02-19T13:45:30.803Z,67.07
2023-02-19T13:46:42.067Z,66.94
2023-02-19T13:47:59.543Z,66.44
2023-02-19T13:49:23.075Z,66.75
2023-02-19T13:50:30.702Z,66.67
2023-02-19T13:51:35.450Z,67.27
2023-02-19T13:52:39.577Z,67.12
2023-02-19T13:53:41.445Z,66.91
2023-02-19T13:54:43.184Z,66.89
2023-02-19T13:55:46.998Z,67.43
2023-02-19T13:56:49.312Z,67.33
2023-02-19T13:57:50.823Z,67.47
2023-02-19T13:58:56.530Z,67.34
2023-02-19T13:59:58.980Z,67.16
2023-02-19T14:01:01.962Z,67.58
2023-02-19T14:02:03.267Z,67.16
2023-02-19T14:03:23.536Z,66.95
2023-02-19T14:04:44.084Z,67.64
2023-02-19T14:06:06.667Z,67.10
2023-02-19T14:07:08.031Z,66.22
2023-02-19T14:08:09.662Z,65.54
2023-02-19T14:09:44.192Z,64.49
2023-02-19T14:11:02.568Z,64.19
2023-02-19T14:12:13.732Z,63.68
2023-02-19T14:13:47.662Z,63.53
2023-02-19T14:14:54.095Z,63.59
2023-02-19T14:15:55.574Z,63.21
2023-02-19T14:17:01.117Z,62.37
2023-02-19T14:18:02.587Z,61.73
2023-02-19T14:19:13.223Z,62.07
2023-02-19T14:20:17.687Z,61.67
2023-02-19T14:21:35.414Z,61.41
2023-02-19T14:22:58.107Z,60.87